Terminal Aerodrome Forecast
Issued by NWS

Home | Current Version | Previous Version | Text Only | Print | Product List | Glossary Off
Versions: 1 2 3 4 5 6 7 8 9 10 11 12 13

000
FTUS43 KBIS 271142
TAFMOT
TAF
KMOT 271142Z 2712/2812 05006KT P6SM OVC050
     FM271600 06011G19KT P6SM OVC090
     FM280000 04010KT P6SM BKN150
     FM280600 01008KT P6SM BKN150=

USA.gov is the U.S. government's official web portal to all federal, state and local government web resources and services.